sensor_id;sensor_type;location;lat;lon;timestamp;temperature;humidity
31819;DHT22;18384;48.860;9.188;2023-06-22T00:02:14;22.90;97.30
31819;DHT22;18384;48.860;9.188;2023-06-22T00:04:40;23.00;97.40
31819;DHT22;18384;48.860;9.188;2023-06-22T00:07:06;22.90;97.50
31819;DHT22;18384;48.860;9.188;2023-06-22T00:09:32;22.90;97.50
31819;DHT22;18384;48.860;9.188;2023-06-22T00:11:59;22.90;97.50
31819;DHT22;18384;48.860;9.188;2023-06-22T00:14:25;22.90;97.50
31819;DHT22;18384;48.860;9.188;2023-06-22T00:16:51;22.80;97.50
31819;DHT22;18384;48.860;9.188;2023-06-22T00:19:22;22.80;97.50
31819;DHT22;18384;48.860;9.188;2023-06-22T00:21:49;22.80;97.50
31819;DHT22;18384;48.860;9.188;2023-06-22T00:24:19;22.80;97.60
31819;DHT22;18384;48.860;9.188;2023-06-22T00:26:45;22.80;97.80
31819;DHT22;18384;48.860;9.188;2023-06-22T00:29:11;22.80;97.80
31819;DHT22;18384;48.860;9.188;2023-06-22T00:31:37;22.70;97.90
31819;DHT22;18384;48.860;9.188;2023-06-22T00:34:03;22.70;98.20
31819;DHT22;18384;48.860;9.188;2023-06-22T00:36:34;22.70;98.30
31819;DHT22;18384;48.860;9.188;2023-06-22T00:39:00;22.70;98.40
31819;DHT22;18384;48.860;9.188;2023-06-22T00:41:26;22.70;98.30
31819;DHT22;18384;48.860;9.188;2023-06-22T00:43:54;22.60;98.10
31819;DHT22;18384;48.860;9.188;2023-06-22T00:46:20;22.60;98.30
31819;DHT22;18384;48.860;9.188;2023-06-22T00:48:48;22.60;98.40
31819;DHT22;18384;48.860;9.188;2023-06-22T00:51:14;22.60;98.40
31819;DHT22;18384;48.860;9.188;2023-06-22T00:53:40;22.60;98.50
31819;DHT22;18384;48.860;9.188;2023-06-22T00:56:10;22.50;98.70
31819;DHT22;18384;48.860;9.188;2023-06-22T00:58:37;24.90;99.10
31819;DHT22;18384;48.860;9.188;2023-06-22T01:01:07;22.50;98.40
31819;DHT22;18384;48.860;9.188;2023-06-22T01:03:33;22.50;98.60
31819;DHT22;18384;48.860;9.188;2023-06-22T01:06:02;22.50;98.70
31819;DHT22;18384;48.860;9.188;2023-06-22T01:11:47;22.50;98.30
31819;DHT22;18384;48.860;9.188;2023-06-22T01:14:20;22.50;98.40
31819;DHT22;18384;48.860;9.188;2023-06-22T01:16:50;22.50;98.30
31819;DHT22;18384;48.860;9.188;2023-06-22T01:22:15;22.40;98.30
31819;DHT22;18384;48.860;9.188;2023-06-22T01:24:48;22.30;98.40
31819;DHT22;18384;48.860;9.188;2023-06-22T01:30:30;22.40;98.40
31819;DHT22;18384;48.860;9.188;2023-06-22T01:32:56;22.30;98.30
31819;DHT22;18384;48.860;9.188;2023-06-22T01:35:23;22.30;98.30
31819;DHT22;18384;48.860;9.188;2023-06-22T01:37:49;22.40;98.40
31819;DHT22;18384;48.860;9.188;2023-06-22T01:40:15;22.30;98.30
31819;DHT22;18384;48.860;9.188;2023-06-22T01:42:42;22.30;98.40
31819;DHT22;18384;48.860;9.188;2023-06-22T01:45:09;22.30;98.60
31819;DHT22;18384;48.860;9.188;2023-06-22T01:47:36;22.30;98.60
31819;DHT22;18384;48.860;9.188;2023-06-22T01:50:03;22.20;98.50
31819;DHT22;18384;48.860;9.188;2023-06-22T01:52:29;22.30;98.50
31819;DHT22;18384;48.860;9.188;2023-06-22T01:54:55;22.30;98.60
31819;DHT22;18384;48.860;9.188;2023-06-22T01:57:23;22.20;98.60
31819;DHT22;18384;48.860;9.188;2023-06-22T02:00:11;22.20;98.60
31819;DHT22;18384;48.860;9.188;2023-06-22T02:02:43;22.30;98.60
31819;DHT22;18384;48.860;9.188;2023-06-22T02:05:58;22.20;98.60
31819;DHT22;18384;48.860;9.188;2023-06-22T02:08:29;22.20;98.60
31819;DHT22;18384;48.860;9.188;2023-06-22T02:10:58;22.20;98.90
31819;DHT22;18384;48.860;9.188;2023-06-22T02:13:25;22.20;98.80
31819;DHT22;18384;48.860;9.188;2023-06-22T02:15:51;22.20;98.70
31819;DHT22;18384;48.860;9.188;2023-06-22T02:18:17;22.20;98.70
31819;DHT22;18384;48.860;9.188;2023-06-22T02:20:43;22.20;98.90
31819;DHT22;18384;48.860;9.188;2023-06-22T02:23:09;22.10;99.00
31819;DHT22;18384;48.860;9.188;2023-06-22T02:25:35;22.10;99.00
31819;DHT22;18384;48.860;9.188;2023-06-22T02:28:01;22.10;98.90
31819;DHT22;18384;48.860;9.188;2023-06-22T02:30:27;22.10;99.10
31819;DHT22;18384;48.860;9.188;2023-06-22T02:32:53;22.10;99.10
31819;DHT22;18384;48.860;9.188;2023-06-22T02:35:28;22.10;99.00
31819;DHT22;18384;48.860;9.188;2023-06-22T02:37:58;22.10;98.90
31819;DHT22;18384;48.860;9.188;2023-06-22T02:40:25;22.00;98.90
31819;DHT22;18384;48.860;9.188;2023-06-22T02:42:51;22.00;98.90
31819;DHT22;18384;48.860;9.188;2023-06-22T02:45:16;22.00;98.90
31819;DHT22;18384;48.860;9.188;2023-06-22T02:47:42;22.00;99.00
31819;DHT22;18384;48.860;9.188;2023-06-22T02:50:09;22.00;99.00
31819;DHT22;18384;48.860;9.188;2023-06-22T02:52:35;22.00;99.00
31819;DHT22;18384;48.860;9.188;2023-06-22T02:55:01;22.00;99.10
31819;DHT22;18384;48.860;9.188;2023-06-22T02:57:27;21.90;99.10
31819;DHT22;18384;48.860;9.188;2023-06-22T02:59:52;21.90;99.10
31819;DHT22;18384;48.860;9.188;2023-06-22T03:02:20;21.90;99.10
31819;DHT22;18384;48.860;9.188;2023-06-22T03:04:47;21.90;99.20
31819;DHT22;18384;48.860;9.188;2023-06-22T03:07:17;21.90;99.30
31819;DHT22;18384;48.860;9.188;2023-06-22T03:09:43;21.80;99.30
31819;DHT22;18384;48.860;9.188;2023-06-22T03:12:09;21.90;99.40
31819;DHT22;18384;48.860;9.188;2023-06-22T03:14:36;21.80;99.30
31819;DHT22;18384;48.860;9.188;2023-06-22T03:17:04;21.80;99.30
31819;DHT22;18384;48.860;9.188;2023-06-22T03:19:30;21.80;99.30
31819;DHT22;18384;48.860;9.188;2023-06-22T03:22:00;21.80;99.40
31819;DHT22;18384;48.860;9.188;2023-06-22T03:24:26;21.80;99.40
31819;DHT22;18384;48.860;9.188;2023-06-22T03:26:55;21.80;99.40
31819;DHT22;18384;48.860;9.188;2023-06-22T03:29:22;21.80;99.30
31819;DHT22;18384;48.860;9.188;2023-06-22T03:31:49;21.70;99.30
31819;DHT22;18384;48.860;9.188;2023-06-22T03:34:15;21.70;99.30
31819;DHT22;18384;48.860;9.188;2023-06-22T03:36:41;21.60;99.40
31819;DHT22;18384;48.860;9.188;2023-06-22T03:39:08;21.60;99.40
31819;DHT22;18384;48.860;9.188;2023-06-22T03:41:34;21.70;99.30
31819;DHT22;18384;48.860;9.188;2023-06-22T03:44:00;21.70;99.40
31819;DHT22;18384;48.860;9.188;2023-06-22T03:46:26;21.70;99.30
31819;DHT22;18384;48.860;9.188;2023-06-22T03:48:52;21.70;99.30
31819;DHT22;18384;48.860;9.188;2023-06-22T03:51:18;21.70;99.20
31819;DHT22;18384;48.860;9.188;2023-06-22T03:53:44;21.60;99.20
31819;DHT22;18384;48.860;9.188;2023-06-22T03:56:10;21.60;99.30
31819;DHT22;18384;48.860;9.188;2023-06-22T03:58:36;21.60;99.30
31819;DHT22;18384;48.860;9.188;2023-06-22T04:01:08;21.70;99.30
31819;DHT22;18384;48.860;9.188;2023-06-22T04:03:37;21.70;99.20
31819;DHT22;18384;48.860;9.188;2023-06-22T04:06:03;21.70;99.20
31819;DHT22;18384;48.860;9.188;2023-06-22T04:08:29;21.80;99.20
31819;DHT22;18384;48.860;9.188;2023-06-22T04:10:55;21.80;99.10
31819;DHT22;18384;48.860;9.188;2023-06-22T04:13:22;21.80;99.00
31819;DHT22;18384;48.860;9.188;2023-06-22T04:15:48;21.90;98.90
31819;DHT22;18384;48.860;9.188;2023-06-22T04:18:14;21.90;99.00
31819;DHT22;18384;48.860;9.188;2023-06-22T04:20:39;21.90;98.80
31819;DHT22;18384;48.860;9.188;2023-06-22T04:23:05;22.00;98.80
31819;DHT22;18384;48.860;9.188;2023-06-22T04:25:31;22.00;98.70
31819;DHT22;18384;48.860;9.188;2023-06-22T04:27:57;22.10;98.60
31819;DHT22;18384;48.860;9.188;2023-06-22T04:30:23;22.10;98.60
31819;DHT22;18384;48.860;9.188;2023-06-22T04:32:49;22.10;98.50
31819;DHT22;18384;48.860;9.188;2023-06-22T04:35:21;22.20;98.50
31819;DHT22;18384;48.860;9.188;2023-06-22T04:37:48;22.30;98.40
31819;DHT22;18384;48.860;9.188;2023-06-22T04:40:15;22.40;98.20
31819;DHT22;18384;48.860;9.188;2023-06-22T04:42:41;22.50;97.90
31819;DHT22;18384;48.860;9.188;2023-06-22T04:45:17;22.60;97.70
31819;DHT22;18384;48.860;9.188;2023-06-22T04:47:43;22.80;97.50
31819;DHT22;18384;48.860;9.188;2023-06-22T04:50:11;23.00;97.40
31819;DHT22;18384;48.860;9.188;2023-06-22T04:52:37;23.00;97.30
31819;DHT22;18384;48.860;9.188;2023-06-22T04:55:03;23.00;97.10
31819;DHT22;18384;48.860;9.188;2023-06-22T04:57:30;23.20;96.90
31819;DHT22;18384;48.860;9.188;2023-06-22T05:00:01;23.30;96.70
31819;DHT22;18384;48.860;9.188;2023-06-22T05:02:27;23.50;96.60
31819;DHT22;18384;48.860;9.188;2023-06-22T05:04:58;23.60;96.50
31819;DHT22;18384;48.860;9.188;2023-06-22T05:07:24;23.60;96.20
31819;DHT22;18384;48.860;9.188;2023-06-22T05:09:51;23.70;96.20
31819;DHT22;18384;48.860;9.188;2023-06-22T05:12:17;23.60;96.20
31819;DHT22;18384;48.860;9.188;2023-06-22T05:14:42;23.60;96.10
31819;DHT22;18384;48.860;9.188;2023-06-22T05:17:10;23.50;96.10
31819;DHT22;18384;48.860;9.188;2023-06-22T05:19:39;23.50;96.40
31819;DHT22;18384;48.860;9.188;2023-06-22T05:22:10;23.50;96.30
31819;DHT22;18384;48.860;9.188;2023-06-22T05:24:37;23.60;96.30
31819;DHT22;18384;48.860;9.188;2023-06-22T05:27:03;23.70;96.20
31819;DHT22;18384;48.860;9.188;2023-06-22T05:29:30;23.70;96.40
31819;DHT22;18384;48.860;9.188;2023-06-22T05:31:56;23.80;96.00
31819;DHT22;18384;48.860;9.188;2023-06-22T05:34:22;23.80;95.90
31819;DHT22;18384;48.860;9.188;2023-06-22T05:36:48;23.90;95.80
31819;DHT22;18384;48.860;9.188;2023-06-22T05:39:14;23.90;96.00
31819;DHT22;18384;48.860;9.188;2023-06-22T05:41:40;23.90;95.70
31819;DHT22;18384;48.860;9.188;2023-06-22T05:44:07;24.00;95.70
31819;DHT22;18384;48.860;9.188;2023-06-22T05:46:33;24.10;95.70
31819;DHT22;18384;48.860;9.188;2023-06-22T05:48:59;24.10;95.50
31819;DHT22;18384;48.860;9.188;2023-06-22T05:51:24;24.20;95.10
31819;DHT22;18384;48.860;9.188;2023-06-22T05:53:50;24.20;95.30
31819;DHT22;18384;48.860;9.188;2023-06-22T05:56:16;24.50;95.00
31819;DHT22;18384;48.860;9.188;2023-06-22T05:58:42;24.70;95.30
31819;DHT22;18384;48.860;9.188;2023-06-22T06:01:08;24.70;95.10
31819;DHT22;18384;48.860;9.188;2023-06-22T06:03:34;24.80;94.70
31819;DHT22;18384;48.860;9.188;2023-06-22T06:06:06;24.80;94.90
31819;DHT22;18384;48.860;9.188;2023-06-22T06:08:37;24.70;94.90
31819;DHT22;18384;48.860;9.188;2023-06-22T06:11:03;24.80;94.90
31819;DHT22;18384;48.860;9.188;2023-06-22T06:13:29;24.80;95.00
31819;DHT22;18384;48.860;9.188;2023-06-22T06:15:55;24.80;94.50
31819;DHT22;18384;48.860;9.188;2023-06-22T06:18:21;24.60;94.40
31819;DHT22;18384;48.860;9.188;2023-06-22T06:20:47;24.60;94.70
31819;DHT22;18384;48.860;9.188;2023-06-22T06:23:13;24.60;95.10
31819;DHT22;18384;48.860;9.188;2023-06-22T06:25:39;24.60;95.10
31819;DHT22;18384;48.860;9.188;2023-06-22T06:28:05;24.60;95.10
31819;DHT22;18384;48.860;9.188;2023-06-22T06:30:31;24.70;95.10
31819;DHT22;18384;48.860;9.188;2023-06-22T06:32:57;24.80;95.10
31819;DHT22;18384;48.860;9.188;2023-06-22T06:35:23;24.90;94.70
31819;DHT22;18384;48.860;9.188;2023-06-22T06:37:50;25.00;95.00
31819;DHT22;18384;48.860;9.188;2023-06-22T06:40:16;25.10;95.00
31819;DHT22;18384;48.860;9.188;2023-06-22T06:42:44;25.20;94.90
31819;DHT22;18384;48.860;9.188;2023-06-22T06:45:11;25.20;94.20
31819;DHT22;18384;48.860;9.188;2023-06-22T06:47:39;25.20;94.20
31819;DHT22;18384;48.860;9.188;2023-06-22T06:50:05;25.20;94.00
31819;DHT22;18384;48.860;9.188;2023-06-22T06:52:31;25.20;94.20
31819;DHT22;18384;48.860;9.188;2023-06-22T06:54:58;25.30;93.80
31819;DHT22;18384;48.860;9.188;2023-06-22T06:57:24;25.40;93.90
31819;DHT22;18384;48.860;9.188;2023-06-22T06:59:57;25.50;94.30
31819;DHT22;18384;48.860;9.188;2023-06-22T07:02:23;25.50;94.10
31819;DHT22;18384;48.860;9.188;2023-06-22T07:04:49;25.60;93.70
31819;DHT22;18384;48.860;9.188;2023-06-22T07:07:15;25.60;93.30
31819;DHT22;18384;48.860;9.188;2023-06-22T07:09:42;25.50;93.40
31819;DHT22;18384;48.860;9.188;2023-06-22T07:12:08;25.40;94.30
31819;DHT22;18384;48.860;9.188;2023-06-22T07:14:34;25.40;93.60
31819;DHT22;18384;48.860;9.188;2023-06-22T07:17:00;25.50;93.60
31819;DHT22;18384;48.860;9.188;2023-06-22T07:19:26;25.50;94.10
31819;DHT22;18384;48.860;9.188;2023-06-22T07:21:53;25.50;93.90
31819;DHT22;18384;48.860;9.188;2023-06-22T07:24:20;25.60;94.10
31819;DHT22;18384;48.860;9.188;2023-06-22T07:26:47;25.70;93.80
31819;DHT22;18384;48.860;9.188;2023-06-22T07:29:18;25.70;93.30
31819;DHT22;18384;48.860;9.188;2023-06-22T07:31:46;25.70;93.00
31819;DHT22;18384;48.860;9.188;2023-06-22T07:34:13;25.80;93.40
31819;DHT22;18384;48.860;9.188;2023-06-22T07:36:38;25.80;93.50
31819;DHT22;18384;48.860;9.188;2023-06-22T07:39:05;25.90;93.50
31819;DHT22;18384;48.860;9.188;2023-06-22T07:41:31;25.90;92.90
31819;DHT22;18384;48.860;9.188;2023-06-22T07:43:57;26.10;93.40
31819;DHT22;18384;48.860;9.188;2023-06-22T07:46:23;26.10;93.00
31819;DHT22;18384;48.860;9.188;2023-06-22T07:48:49;26.10;92.90
31819;DHT22;18384;48.860;9.188;2023-06-22T07:51:15;26.30;93.40
31819;DHT22;18384;48.860;9.188;2023-06-22T07:53:41;26.40;93.00
31819;DHT22;18384;48.860;9.188;2023-06-22T07:56:10;26.40;92.40
31819;DHT22;18384;48.860;9.188;2023-06-22T07:58:36;26.60;92.60
31819;DHT22;18384;48.860;9.188;2023-06-22T08:01:02;26.70;92.40
31819;DHT22;18384;48.860;9.188;2023-06-22T08:03:29;26.70;91.90
31819;DHT22;18384;48.860;9.188;2023-06-22T08:05:55;26.70;91.50
31819;DHT22;18384;48.860;9.188;2023-06-22T08:08:21;26.70;91.80
31819;DHT22;18384;48.860;9.188;2023-06-22T08:10:47;26.70;91.70
31819;DHT22;18384;48.860;9.188;2023-06-22T08:13:14;26.80;91.80
31819;DHT22;18384;48.860;9.188;2023-06-22T08:15:39;26.90;91.10
31819;DHT22;18384;48.860;9.188;2023-06-22T08:18:05;26.90;91.20
31819;DHT22;18384;48.860;9.188;2023-06-22T08:20:31;27.00;91.90
31819;DHT22;18384;48.860;9.188;2023-06-22T08:22:58;27.20;91.70
31819;DHT22;18384;48.860;9.188;2023-06-22T08:25:30;27.40;91.70
31819;DHT22;18384;48.860;9.188;2023-06-22T08:27:57;27.40;91.10
31819;DHT22;18384;48.860;9.188;2023-06-22T08:30:23;27.60;91.10
31819;DHT22;18384;48.860;9.188;2023-06-22T08:32:49;27.70;91.10
31819;DHT22;18384;48.860;9.188;2023-06-22T08:35:15;27.80;90.10
31819;DHT22;18384;48.860;9.188;2023-06-22T08:37:41;27.90;90.30
31819;DHT22;18384;48.860;9.188;2023-06-22T08:40:07;28.00;90.60
31819;DHT22;18384;48.860;9.188;2023-06-22T08:42:35;28.10;90.60
31819;DHT22;18384;48.860;9.188;2023-06-22T08:45:01;28.20;90.20
31819;DHT22;18384;48.860;9.188;2023-06-22T08:47:28;28.20;90.00
31819;DHT22;18384;48.860;9.188;2023-06-22T08:49:54;28.20;90.20
31819;DHT22;18384;48.860;9.188;2023-06-22T08:52:20;28.30;90.20
31819;DHT22;18384;48.860;9.188;2023-06-22T08:54:49;28.30;90.00
31819;DHT22;18384;48.860;9.188;2023-06-22T08:57:15;28.10;90.00
31819;DHT22;18384;48.860;9.188;2023-06-22T08:59:42;28.10;89.80
31819;DHT22;18384;48.860;9.188;2023-06-22T09:02:08;28.10;90.20
31819;DHT22;18384;48.860;9.188;2023-06-22T09:04:34;28.30;89.70
31819;DHT22;18384;48.860;9.188;2023-06-22T09:07:00;28.40;88.20
31819;DHT22;18384;48.860;9.188;2023-06-22T09:09:27;28.50;88.00
31819;DHT22;18384;48.860;9.188;2023-06-22T09:11:53;28.60;88.00
31819;DHT22;18384;48.860;9.188;2023-06-22T09:14:19;28.90;90.00
31819;DHT22;18384;48.860;9.188;2023-06-22T09:16:45;29.10;88.90
31819;DHT22;18384;48.860;9.188;2023-06-22T09:19:11;29.20;87.50
31819;DHT22;18384;48.860;9.188;2023-06-22T09:21:37;29.30;87.30
31819;DHT22;18384;48.860;9.188;2023-06-22T09:24:03;29.30;85.60
31819;DHT22;18384;48.860;9.188;2023-06-22T09:26:29;29.20;86.80
31819;DHT22;18384;48.860;9.188;2023-06-22T09:28:55;29.00;86.90
31819;DHT22;18384;48.860;9.188;2023-06-22T09:31:21;29.00;87.50
31819;DHT22;18384;48.860;9.188;2023-06-22T09:33:53;29.10;86.40
31819;DHT22;18384;48.860;9.188;2023-06-22T09:36:20;29.20;88.10
31819;DHT22;18384;48.860;9.188;2023-06-22T09:38:47;29.40;86.40
31819;DHT22;18384;48.860;9.188;2023-06-22T09:41:13;29.40;87.10
31819;DHT22;18384;48.860;9.188;2023-06-22T09:43:39;29.50;86.90
31819;DHT22;18384;48.860;9.188;2023-06-22T09:46:05;29.60;86.00
31819;DHT22;18384;48.860;9.188;2023-06-22T09:48:32;29.50;85.60
31819;DHT22;18384;48.860;9.188;2023-06-22T09:50:58;29.50;85.80
31819;DHT22;18384;48.860;9.188;2023-06-22T09:53:24;29.40;86.50
31819;DHT22;18384;48.860;9.188;2023-06-22T09:55:50;29.40;85.30
31819;DHT22;18384;48.860;9.188;2023-06-22T09:58:16;29.30;87.00
31819;DHT22;18384;48.860;9.188;2023-06-22T10:00:42;29.30;86.80
31819;DHT22;18384;48.860;9.188;2023-06-22T10:03:08;29.30;85.80
31819;DHT22;18384;48.860;9.188;2023-06-22T10:05:34;29.40;86.30
31819;DHT22;18384;48.860;9.188;2023-06-22T10:08:00;29.50;86.80
31819;DHT22;18384;48.860;9.188;2023-06-22T10:10:26;29.50;85.70
31819;DHT22;18384;48.860;9.188;2023-06-22T10:12:56;29.50;86.50
31819;DHT22;18384;48.860;9.188;2023-06-22T10:15:23;29.60;86.50
31819;DHT22;18384;48.860;9.188;2023-06-22T10:17:49;29.60;86.20
31819;DHT22;18384;48.860;9.188;2023-06-22T10:20:15;29.70;85.80
31819;DHT22;18384;48.860;9.188;2023-06-22T10:22:43;29.80;86.90
31819;DHT22;18384;48.860;9.188;2023-06-22T10:25:10;29.90;85.60
31819;DHT22;18384;48.860;9.188;2023-06-22T10:27:37;29.80;84.00
31819;DHT22;18384;48.860;9.188;2023-06-22T10:30:09;29.80;83.70
31819;DHT22;18384;48.860;9.188;2023-06-22T10:32:37;29.90;85.40
31819;DHT22;18384;48.860;9.188;2023-06-22T10:35:03;30.00;85.00
31819;DHT22;18384;48.860;9.188;2023-06-22T10:37:30;30.20;84.80
31819;DHT22;18384;48.860;9.188;2023-06-22T10:39:56;30.20;83.30
31819;DHT22;18384;48.860;9.188;2023-06-22T10:42:21;30.30;82.80
31819;DHT22;18384;48.860;9.188;2023-06-22T10:44:47;30.40;82.70
31819;DHT22;18384;48.860;9.188;2023-06-22T10:47:13;30.50;82.60
31819;DHT22;18384;48.860;9.188;2023-06-22T10:49:40;30.70;83.00
31819;DHT22;18384;48.860;9.188;2023-06-22T10:52:06;30.80;82.60
31819;DHT22;18384;48.860;9.188;2023-06-22T10:54:33;30.90;83.40
31819;DHT22;18384;48.860;9.188;2023-06-22T10:57:00;31.00;81.80
31819;DHT22;18384;48.860;9.188;2023-06-22T10:59:27;31.10;82.30
31819;DHT22;18384;48.860;9.188;2023-06-22T11:01:55;31.10;80.80
31819;DHT22;18384;48.860;9.188;2023-06-22T11:04:21;31.20;80.90
31819;DHT22;18384;48.860;9.188;2023-06-22T11:06:47;31.20;83.20
31819;DHT22;18384;48.860;9.188;2023-06-22T11:09:14;31.20;80.90
31819;DHT22;18384;48.860;9.188;2023-06-22T11:11:48;31.30;80.60
31819;DHT22;18384;48.860;9.188;2023-06-22T11:14:16;31.40;82.00
31819;DHT22;18384;48.860;9.188;2023-06-22T11:16:42;31.40;82.40
31819;DHT22;18384;48.860;9.188;2023-06-22T11:19:08;31.30;82.80
31819;DHT22;18384;48.860;9.188;2023-06-22T11:21:34;31.40;80.70
31819;DHT22;18384;48.860;9.188;2023-06-22T11:24:00;31.50;82.40
31819;DHT22;18384;48.860;9.188;2023-06-22T11:26:26;31.50;80.70
31819;DHT22;18384;48.860;9.188;2023-06-22T11:28:55;31.40;81.10
31819;DHT22;18384;48.860;9.188;2023-06-22T11:31:21;31.40;81.20
31819;DHT22;18384;48.860;9.188;2023-06-22T11:33:47;31.40;81.80
31819;DHT22;18384;48.860;9.188;2023-06-22T11:36:14;31.30;81.20
31819;DHT22;18384;48.860;9.188;2023-06-22T11:38:41;31.40;81.30
31819;DHT22;18384;48.860;9.188;2023-06-22T11:41:07;31.30;80.80
31819;DHT22;18384;48.860;9.188;2023-06-22T11:43:35;31.10;80.90
31819;DHT22;18384;48.860;9.188;2023-06-22T11:46:03;31.10;81.20
31819;DHT22;18384;48.860;9.188;2023-06-22T11:48:29;30.90;81.50
31819;DHT22;18384;48.860;9.188;2023-06-22T11:50:56;30.90;82.40
31819;DHT22;18384;48.860;9.188;2023-06-22T11:53:23;31.00;82.40
31819;DHT22;18384;48.860;9.188;2023-06-22T11:55:50;31.00;83.10
31819;DHT22;18384;48.860;9.188;2023-06-22T11:58:16;31.10;83.80
31819;DHT22;18384;48.860;9.188;2023-06-22T12:00:42;31.10;81.50
31819;DHT22;18384;48.860;9.188;2023-06-22T12:03:08;31.20;84.70
31819;DHT22;18384;48.860;9.188;2023-06-22T12:05:35;31.20;82.00
31819;DHT22;18384;48.860;9.188;2023-06-22T12:08:00;31.20;82.10
31819;DHT22;18384;48.860;9.188;2023-06-22T12:10:26;31.20;83.40
31819;DHT22;18384;48.860;9.188;2023-06-22T12:12:55;31.10;84.50
31819;DHT22;18384;48.860;9.188;2023-06-22T12:15:23;31.10;82.90
31819;DHT22;18384;48.860;9.188;2023-06-22T12:17:49;31.00;83.30
31819;DHT22;18384;48.860;9.188;2023-06-22T12:20:15;30.90;81.80
31819;DHT22;18384;48.860;9.188;2023-06-22T12:22:41;30.80;82.00
31819;DHT22;18384;48.860;9.188;2023-06-22T12:25:07;30.80;82.60
31819;DHT22;18384;48.860;9.188;2023-06-22T12:27:34;30.80;82.00
31819;DHT22;18384;48.860;9.188;2023-06-22T12:30:00;30.80;82.60
31819;DHT22;18384;48.860;9.188;2023-06-22T12:32:26;30.80;84.40
31819;DHT22;18384;48.860;9.188;2023-06-22T12:34:52;31.00;83.20
31819;DHT22;18384;48.860;9.188;2023-06-22T12:37:18;30.90;82.20
31819;DHT22;18384;48.860;9.188;2023-06-22T12:39:44;30.90;81.90
31819;DHT22;18384;48.860;9.188;2023-06-22T12:42:10;31.10;83.10
31819;DHT22;18384;48.860;9.188;2023-06-22T12:44:37;31.10;84.20
31819;DHT22;18384;48.860;9.188;2023-06-22T12:47:04;31.00;84.60
31819;DHT22;18384;48.860;9.188;2023-06-22T12:49:30;31.00;84.30
31819;DHT22;18384;48.860;9.188;2023-06-22T12:51:56;31.00;85.70
31819;DHT22;18384;48.860;9.188;2023-06-22T12:54:22;30.90;84.50
31819;DHT22;18384;48.860;9.188;2023-06-22T12:56:49;30.90;84.40
31819;DHT22;18384;48.860;9.188;2023-06-22T12:59:15;30.80;85.20
31819;DHT22;18384;48.860;9.188;2023-06-22T13:01:42;30.80;84.90
31819;DHT22;18384;48.860;9.188;2023-06-22T13:04:11;30.90;85.30
31819;DHT22;18384;48.860;9.188;2023-06-22T13:06:40;30.80;85.80
31819;DHT22;18384;48.860;9.188;2023-06-22T13:09:06;30.80;84.70
31819;DHT22;18384;48.860;9.188;2023-06-22T13:11:34;30.50;84.30
31819;DHT22;18384;48.860;9.188;2023-06-22T13:14:00;30.40;84.60
31819;DHT22;18384;48.860;9.188;2023-06-22T13:16:26;30.30;83.90
31819;DHT22;18384;48.860;9.188;2023-06-22T13:18:52;30.40;85.30
31819;DHT22;18384;48.860;9.188;2023-06-22T13:21:18;30.30;83.90
31819;DHT22;18384;48.860;9.188;2023-06-22T13:23:44;30.50;83.50
31819;DHT22;18384;48.860;9.188;2023-06-22T13:26:09;30.50;84.50
31819;DHT22;18384;48.860;9.188;2023-06-22T13:28:35;30.40;83.60
31819;DHT22;18384;48.860;9.188;2023-06-22T13:31:01;30.50;84.40
31819;DHT22;18384;48.860;9.188;2023-06-22T13:33:27;30.50;84.20
31819;DHT22;18384;48.860;9.188;2023-06-22T13:35:53;30.50;84.10
31819;DHT22;18384;48.860;9.188;2023-06-22T13:38:19;30.60;83.20
31819;DHT22;18384;48.860;9.188;2023-06-22T13:40:45;30.90;85.50
31819;DHT22;18384;48.860;9.188;2023-06-22T13:43:12;30.90;85.70
31819;DHT22;18384;48.860;9.188;2023-06-22T13:45:38;31.20;84.60
31819;DHT22;18384;48.860;9.188;2023-06-22T13:48:05;31.40;82.80
31819;DHT22;18384;48.860;9.188;2023-06-22T13:50:31;31.50;82.30
31819;DHT22;18384;48.860;9.188;2023-06-22T13:52:56;31.70;82.80
31819;DHT22;18384;48.860;9.188;2023-06-22T13:55:23;31.70;84.40
31819;DHT22;18384;48.860;9.188;2023-06-22T13:57:49;31.80;83.70
31819;DHT22;18384;48.860;9.188;2023-06-22T14:00:16;31.90;83.70
31819;DHT22;18384;48.860;9.188;2023-06-22T14:02:49;31.90;82.60
31819;DHT22;18384;48.860;9.188;2023-06-22T14:05:16;32.00;83.10
31819;DHT22;18384;48.860;9.188;2023-06-22T14:07:42;31.90;82.50
31819;DHT22;18384;48.860;9.188;2023-06-22T14:10:08;31.90;83.30
31819;DHT22;18384;48.860;9.188;2023-06-22T14:12:34;31.90;83.00
31819;DHT22;18384;48.860;9.188;2023-06-22T14:15:00;31.80;83.00
31819;DHT22;18384;48.860;9.188;2023-06-22T14:17:26;31.80;83.10
31819;DHT22;18384;48.860;9.188;2023-06-22T14:19:52;31.70;82.60
31819;DHT22;18384;48.860;9.188;2023-06-22T14:22:21;31.80;82.50
31819;DHT22;18384;48.860;9.188;2023-06-22T14:24:47;31.80;84.00
31819;DHT22;18384;48.860;9.188;2023-06-22T14:27:14;31.70;83.00
31819;DHT22;18384;48.860;9.188;2023-06-22T14:29:40;31.80;83.80
31819;DHT22;18384;48.860;9.188;2023-06-22T14:32:07;31.90;83.00
31819;DHT22;18384;48.860;9.188;2023-06-22T14:34:33;32.00;82.30
31819;DHT22;18384;48.860;9.188;2023-06-22T14:37:01;31.90;80.40
31819;DHT22;18384;48.860;9.188;2023-06-22T14:39:28;31.90;78.80
31819;DHT22;18384;48.860;9.188;2023-06-22T14:41:54;31.90;78.20
31819;DHT22;18384;48.860;9.188;2023-06-22T14:44:19;31.90;79.60
31819;DHT22;18384;48.860;9.188;2023-06-22T14:46:45;31.90;81.00
31819;DHT22;18384;48.860;9.188;2023-06-22T14:49:11;31.80;78.00
31819;DHT22;18384;48.860;9.188;2023-06-22T14:51:37;31.90;79.60
31819;DHT22;18384;48.860;9.188;2023-06-22T14:54:03;31.90;77.70
31819;DHT22;18384;48.860;9.188;2023-06-22T14:56:30;32.00;78.60
31819;DHT22;18384;48.860;9.188;2023-06-22T14:58:56;31.90;77.10
31819;DHT22;18384;48.860;9.188;2023-06-22T15:01:22;31.90;79.80
31819;DHT22;18384;48.860;9.188;2023-06-22T15:03:48;31.70;76.00
31819;DHT22;18384;48.860;9.188;2023-06-22T15:06:14;31.70;73.40
31819;DHT22;18384;48.860;9.188;2023-06-22T15:08:41;31.60;67.00
31819;DHT22;18384;48.860;9.188;2023-06-22T15:11:07;31.40;66.40
31819;DHT22;18384;48.860;9.188;2023-06-22T15:13:33;31.40;66.60
31819;DHT22;18384;48.860;9.188;2023-06-22T15:16:00;31.30;66.40
31819;DHT22;18384;48.860;9.188;2023-06-22T15:18:26;31.40;65.10
31819;DHT22;18384;48.860;9.188;2023-06-22T15:20:53;31.10;65.00
31819;DHT22;18384;48.860;9.188;2023-06-22T15:23:19;31.30;65.20
31819;DHT22;18384;48.860;9.188;2023-06-22T15:25:45;31.00;66.80
31819;DHT22;18384;48.860;9.188;2023-06-22T15:28:12;31.10;65.80
31819;DHT22;18384;48.860;9.188;2023-06-22T15:30:38;31.20;66.30
31819;DHT22;18384;48.860;9.188;2023-06-22T15:33:04;31.30;67.50
31819;DHT22;18384;48.860;9.188;2023-06-22T15:35:30;31.30;65.00
31819;DHT22;18384;48.860;9.188;2023-06-22T15:37:56;31.20;64.70